Terminal Aerodrome Forecast
Issued by NWS Hastings, NE

Home | Current Version | Previous Version | Text Only | Print | Product List | Glossary On
Versions: 1 2 3 4 5 6 7 8 9 10 11 12 13 14 15 16 17 18 19 20 21 22 23 24 25 26 27 28
000
FTUS43 KGID 161148
TAFGRI
TAF
KGRI 161148Z 1612/1712 18007KT P6SM FEW100
     FM161500 18011KT P6SM SCT035
     FM161700 18012G17KT P6SM BKN035
     FM170000 16006KT P6SM SCT040
     FM170900 VRB04KT 3SM BR SCT150=

USA.gov is the U.S. government's official web portal to all federal, state and local government web resources and services.